createdAt,value
2023-04-20T00:01:26.521Z,34.70
2023-04-20T00:03:54.008Z,36.88
2023-04-20T00:06:22.208Z,44.75
2023-04-20T00:08:49.468Z,28.48
2023-04-20T00:11:16.873Z,32.72
2023-04-20T00:13:44.089Z,32.83
2023-04-20T00:16:11.480Z,36.20
2023-04-20T00:18:39.326Z,27.23
2023-04-20T00:21:07.970Z,30.58
2023-04-20T00:23:35.272Z,28.92
2023-04-20T00:26:02.765Z,27.08
2023-04-20T00:28:30.692Z,28.23
2023-04-20T00:30:58.008Z,36.83
2023-04-20T00:33:26.298Z,27.48
2023-04-20T00:35:54.334Z,23.80
2023-04-20T00:38:24.396Z,26.25
2023-04-20T00:40:54.417Z,34.85
2023-04-20T00:43:22.465Z,33.85
2023-04-20T00:45:54.407Z,33.55
2023-04-20T00:48:22.971Z,30.52
2023-04-20T00:50:51.416Z,29.92
2023-04-20T00:53:19.438Z,27.25
2023-04-20T00:55:47.289Z,39.58
2023-04-20T00:58:14.617Z,38.78
2023-04-20T01:00:44.724Z,33.13
2023-04-20T01:03:12.484Z,24.40
2023-04-20T01:05:39.868Z,25.88
2023-04-20T01:08:07.369Z,23.13
2023-04-20T01:10:34.615Z,27.95
2023-04-20T01:13:01.893Z,23.70
2023-04-20T01:15:29.223Z,22.67
2023-04-20T01:17:57.989Z,23.85
2023-04-20T01:20:25.627Z,27.83
2023-04-20T01:22:56.861Z,22.98
2023-04-20T01:25:24.196Z,25.13
2023-04-20T01:27:53.597Z,30.08
2023-04-20T01:30:20.961Z,24.40
2023-04-20T01:32:48.386Z,32.47
2023-04-20T01:35:16.513Z,26.98
2023-04-20T01:37:45.460Z,28.23
2023-04-20T01:40:14.232Z,31.67
2023-04-20T01:42:41.824Z,30.20
2023-04-20T01:45:09.487Z,27.85
2023-04-20T01:47:37.487Z,34.63
2023-04-20T01:50:07.330Z,25.35
2023-04-20T01:52:34.612Z,28.48
2023-04-20T01:55:01.821Z,29.02
2023-04-20T01:57:29.164Z,30.80
2023-04-20T01:59:57.072Z,32.08
2023-04-20T02:02:24.358Z,25.30
2023-04-20T02:04:53.659Z,22.42
2023-04-20T02:07:21.693Z,23.75
2023-04-20T02:09:49.269Z,22.98
2023-04-20T02:12:17.167Z,24.15
2023-04-20T02:14:44.704Z,19.60
2023-04-20T02:17:12.316Z,25.00
2023-04-20T02:19:39.758Z,27.80
2023-04-20T02:22:07.871Z,23.25
2023-04-20T02:24:35.182Z,22.50
2023-04-20T02:27:03.938Z,21.45
2023-04-20T02:29:32.690Z,19.88
2023-04-20T02:32:00.126Z,26.50
2023-04-20T02:34:27.631Z,21.95
2023-04-20T02:36:57.646Z,19.98
2023-04-20T02:39:25.182Z,23.70
2023-04-20T02:41:54.909Z,25.00
2023-04-20T02:44:22.570Z,24.35
2023-04-20T02:46:50.351Z,24.80
2023-04-20T02:49:19.544Z,20.35
2023-04-20T02:51:47.255Z,22.95
2023-04-20T02:54:15.291Z,24.77
2023-04-20T02:56:43.199Z,20.73
2023-04-20T02:59:11.420Z,25.33
2023-04-20T03:01:44.770Z,22.42
2023-04-20T03:04:19.837Z,30.77
2023-04-20T03:06:55.105Z,25.58
2023-04-20T03:09:28.937Z,27.50
2023-04-20T03:12:12.868Z,23.63
2023-04-20T03:14:59.328Z,26.10
2023-04-20T03:17:59.093Z,25.42
2023-04-20T03:20:27.029Z,25.27
2023-04-20T03:22:54.286Z,21.00
2023-04-20T03:25:24.949Z,25.65
2023-04-20T03:27:58.715Z,24.60
2023-04-20T03:30:27.420Z,23.48
2023-04-20T03:33:03.616Z,26.27
2023-04-20T03:35:31.756Z,25.40
2023-04-20T03:37:58.993Z,25.40
2023-04-20T03:40:26.590Z,27.27
2023-04-20T03:42:54.451Z,28.35
2023-04-20T03:45:21.757Z,25.63
2023-04-20T03:47:50.241Z,26.88
2023-04-20T03:50:17.461Z,28.13
2023-04-20T03:52:45.226Z,25.58
2023-04-20T03:55:12.434Z,29.60
2023-04-20T03:57:47.001Z,32.58
2023-04-20T04:00:15.546Z,27.73
2023-04-20T04:02:46.207Z,27.95
2023-04-20T04:05:18.504Z,32.55
2023-04-20T04:07:46.162Z,35.80
2023-04-20T04:10:13.849Z,26.77
2023-04-20T04:12:41.674Z,26.92
2023-04-20T04:15:09.479Z,29.90
2023-04-20T04:17:45.440Z,29.83
2023-04-20T04:20:13.079Z,22.98
2023-04-20T04:22:42.357Z,20.95
2023-04-20T04:25:48.928Z,30.58
2023-04-20T04:28:21.381Z,26.63
2023-04-20T04:30:58.782Z,21.02
2023-04-20T04:33:26.632Z,26.02
2023-04-20T04:35:55.750Z,27.80
2023-04-20T04:38:24.429Z,30.98
2023-04-20T04:40:52.723Z,33.72
2023-04-20T04:43:20.954Z,27.98
2023-04-20T04:46:08.522Z,29.70
2023-04-20T04:48:36.857Z,21.80
2023-04-20T04:51:05.634Z,24.80
2023-04-20T04:53:33.294Z,27.83
2023-04-20T04:56:01.509Z,27.02
2023-04-20T04:58:28.798Z,27.77
2023-04-20T05:00:56.339Z,23.95
2023-04-20T05:03:24.063Z,25.50
2023-04-20T05:05:51.717Z,30.45
2023-04-20T05:08:18.877Z,24.13
2023-04-20T05:10:47.052Z,23.55
2023-04-20T05:13:14.428Z,20.50
2023-04-20T05:15:43.844Z,24.48
2023-04-20T05:18:11.397Z,21.73
2023-04-20T05:20:38.979Z,22.38
2023-04-20T05:23:06.364Z,16.42
2023-04-20T05:25:33.660Z,21.67
2023-04-20T05:28:01.129Z,21.38
2023-04-20T05:30:28.453Z,19.35
2023-04-20T05:32:55.901Z,17.60
2023-04-20T05:35:23.460Z,23.92
2023-04-20T05:37:50.721Z,20.67
2023-04-20T05:40:18.051Z,26.73
2023-04-20T05:42:45.332Z,25.42
2023-04-20T05:45:13.053Z,26.33
2023-04-20T05:47:40.224Z,27.58
2023-04-20T05:50:08.396Z,29.42
2023-04-20T05:52:35.652Z,33.75
2023-04-20T05:55:02.894Z,27.52
2023-04-20T05:57:30.550Z,23.58
2023-04-20T05:59:57.906Z,22.40
2023-04-20T06:02:25.262Z,23.45
2023-04-20T06:04:52.784Z,23.35
2023-04-20T06:07:20.070Z,18.02
2023-04-20T06:09:47.309Z,22.45
2023-04-20T06:12:14.724Z,18.17
2023-04-20T06:14:41.894Z,20.98
2023-04-20T06:17:09.144Z,19.65
2023-04-20T06:19:36.424Z,21.85
2023-04-20T06:22:10.097Z,21.08
2023-04-20T06:24:39.056Z,22.77
2023-04-20T06:27:06.333Z,29.45
2023-04-20T06:29:33.591Z,17.02
2023-04-20T06:32:00.794Z,22.48
2023-04-20T06:34:28.127Z,25.08
2023-04-20T06:36:55.381Z,21.92
2023-04-20T06:39:22.659Z,24.55
2023-04-20T06:41:49.982Z,29.05
2023-04-20T06:44:17.252Z,21.42
2023-04-20T06:46:44.799Z,25.33
2023-04-20T06:49:12.036Z,24.13
2023-04-20T06:51:39.855Z,23.83
2023-04-20T06:54:07.160Z,29.83
2023-04-20T06:56:35.591Z,28.85
2023-04-20T06:59:03.353Z,22.42
2023-04-20T07:01:31.147Z,25.05
2023-04-20T07:03:58.617Z,27.13
2023-04-20T07:06:27.910Z,32.80
2023-04-20T07:08:55.271Z,29.95
2023-04-20T07:11:24.151Z,25.52
2023-04-20T07:13:51.449Z,29.45
2023-04-20T07:16:18.790Z,21.58
2023-04-20T07:18:46.061Z,20.33
2023-04-20T07:21:13.945Z,37.42
2023-04-20T07:23:43.342Z,23.05
2023-04-20T07:26:12.353Z,22.45
2023-04-20T07:28:39.506Z,17.65
2023-04-20T07:31:06.719Z,27.15
2023-04-20T07:33:36.086Z,23.52
2023-04-20T07:36:03.413Z,27.92
2023-04-20T07:38:30.614Z,26.85
2023-04-20T07:40:57.971Z,23.25
2023-04-20T07:43:25.216Z,20.10
2023-04-20T07:45:52.948Z,17.45
2023-04-20T07:48:20.274Z,18.92
2023-04-20T07:50:47.593Z,29.30
2023-04-20T07:53:14.840Z,24.60
2023-04-20T07:55:42.172Z,20.98
2023-04-20T07:58:09.362Z,22.67
2023-04-20T08:00:36.691Z,24.60
2023-04-20T08:03:05.165Z,20.33
2023-04-20T08:05:32.657Z,26.35
2023-04-20T08:07:59.972Z,21.77
2023-04-20T08:10:27.136Z,27.40
2023-04-20T08:12:54.307Z,18.45
2023-04-20T08:15:21.635Z,20.20
2023-04-20T08:17:48.919Z,21.45
2023-04-20T08:20:16.228Z,21.65
2023-04-20T08:22:43.343Z,16.75
2023-04-20T08:25:10.557Z,25.98
2023-04-20T08:27:38.036Z,26.55
2023-04-20T08:30:06.052Z,21.60
2023-04-20T08:32:33.470Z,19.27
2023-04-20T08:35:00.811Z,18.63
2023-04-20T08:37:29.528Z,18.73
2023-04-20T08:39:57.737Z,11.82
2023-04-20T08:42:24.832Z,18.02
2023-04-20T08:44:54.214Z,17.02
2023-04-20T08:47:21.690Z,16.10
2023-04-20T08:49:52.726Z,10.77
2023-04-20T08:52:19.899Z,19.15
2023-04-20T08:54:55.929Z,20.10
2023-04-20T08:57:24.468Z,13.55
2023-04-20T08:59:52.220Z,13.70
2023-04-20T09:02:19.613Z,12.82
2023-04-20T09:04:49.730Z,19.40
2023-04-20T09:07:21.682Z,14.07
2023-04-20T09:10:00.211Z,15.73
2023-04-20T09:12:28.405Z,17.50
2023-04-20T09:14:57.120Z,17.55
2023-04-20T09:17:35.312Z,15.52
2023-04-20T09:20:02.595Z,17.45
2023-04-20T09:22:39.309Z,17.45
2023-04-20T09:25:19.666Z,20.20
2023-04-20T09:28:01.650Z,16.50
2023-04-20T09:30:49.383Z,16.05
2023-04-20T09:33:16.644Z,14.43
2023-04-20T09:35:45.232Z,10.85
2023-04-20T09:38:17.003Z,9.57
2023-04-20T09:40:44.208Z,8.25
2023-04-20T09:43:18.115Z,12.15
2023-04-20T09:45:45.714Z,11.43
2023-04-20T09:48:17.350Z,9.38
2023-04-20T09:50:49.649Z,14.10
2023-04-20T09:53:19.837Z,12.95
2023-04-20T09:55:52.298Z,10.23
2023-04-20T09:58:24.089Z,13.77
2023-04-20T10:00:51.468Z,13.70
2023-04-20T10:03:22.334Z,11.52
2023-04-20T10:05:51.648Z,17.73
2023-04-20T10:08:20.843Z,11.95
2023-04-20T10:10:50.147Z,12.13
2023-04-20T10:13:19.865Z,9.70
2023-04-20T10:15:47.456Z,13.98
2023-04-20T10:18:23.989Z,9.30
2023-04-20T10:20:52.433Z,17.63
2023-04-20T10:23:20.294Z,15.95
2023-04-20T10:25:59.336Z,11.77
2023-04-20T10:28:37.837Z,10.23
2023-04-20T10:31:05.021Z,10.57
2023-04-20T10:33:32.697Z,10.80
2023-04-20T10:36:00.141Z,16.17
2023-04-20T10:38:33.761Z,16.17
2023-04-20T10:41:10.478Z,13.95
2023-04-20T10:43:43.897Z,12.00
2023-04-20T10:46:22.245Z,11.10
2023-04-20T10:49:02.051Z,13.43
2023-04-20T10:51:29.543Z,12.52
2023-04-20T10:54:08.669Z,11.23
2023-04-20T10:56:43.580Z,13.43
2023-04-20T10:59:13.204Z,10.88
2023-04-20T11:01:41.682Z,11.88
2023-04-20T11:04:10.923Z,12.55
2023-04-20T11:06:42.375Z,21.67
2023-04-20T11:09:23.882Z,15.05
2023-04-20T11:12:12.982Z,15.18
2023-04-20T11:14:55.654Z,18.90
2023-04-20T11:17:37.102Z,15.15
2023-04-20T11:20:12.980Z,12.38
2023-04-20T11:22:42.624Z,15.93
2023-04-20T11:25:11.854Z,15.05
2023-04-20T11:27:39.993Z,22.50
2023-04-20T11:30:08.351Z,13.15
2023-04-20T11:32:36.869Z,7.60
2023-04-20T11:35:11.370Z,15.57
2023-04-20T11:37:54.706Z,12.35
2023-04-20T11:40:22.003Z,17.88
2023-04-20T11:42:49.242Z,14.50
2023-04-20T11:45:16.491Z,13.18
2023-04-20T11:47:43.998Z,15.27
2023-04-20T11:50:11.938Z,7.10
2023-04-20T11:52:39.187Z,9.80
2023-04-20T11:55:07.044Z,9.48
2023-04-20T11:57:34.927Z,10.88
2023-04-20T12:00:02.228Z,6.30
2023-04-20T12:02:41.586Z,6.28
2023-04-20T12:05:09.653Z,5.88
2023-04-20T12:07:37.194Z,6.93
2023-04-20T12:10:05.397Z,6.38
2023-04-20T12:12:32.611Z,7.70
2023-04-20T12:14:59.881Z,4.55
2023-04-20T12:17:27.121Z,4.97
2023-04-20T12:19:54.730Z,5.65
2023-04-20T12:22:21.833Z,10.93
2023-04-20T12:24:49.005Z,10.90
2023-04-20T12:27:16.066Z,5.72
2023-04-20T12:29:43.650Z,7.75
2023-04-20T12:32:10.724Z,4.20
2023-04-20T12:34:40.819Z,5.00
2023-04-20T12:37:08.460Z,7.20
2023-04-20T12:39:35.922Z,7.90
2023-04-20T12:42:03.965Z,9.75
2023-04-20T12:44:31.218Z,12.95
2023-04-20T12:46:58.488Z,3.38
2023-04-20T12:49:25.633Z,8.05
2023-04-20T12:51:52.935Z,6.75
2023-04-20T12:54:20.267Z,3.75
2023-04-20T12:56:47.617Z,7.25
2023-04-20T12:59:14.772Z,6.57
2023-04-20T13:01:42.059Z,6.25
2023-04-20T13:04:09.595Z,9.48
2023-04-20T13:06:37.097Z,7.63
2023-04-20T13:09:05.433Z,11.27
2023-04-20T13:11:32.733Z,6.35
2023-04-20T13:14:01.124Z,8.65
2023-04-20T13:16:30.183Z,9.50
2023-04-20T13:18:58.276Z,9.45
2023-04-20T13:21:25.492Z,11.82
2023-04-20T13:23:54.696Z,10.50
2023-04-20T13:26:23.624Z,11.35
2023-04-20T13:28:52.925Z,10.60
2023-04-20T13:31:20.149Z,7.38
2023-04-20T13:33:48.423Z,9.23
2023-04-20T13:36:15.913Z,16.35
2023-04-20T13:38:43.283Z,5.97
2023-04-20T13:41:10.963Z,5.97
2023-04-20T13:43:38.365Z,4.30
2023-04-20T13:46:05.708Z,11.30
2023-04-20T13:48:33.570Z,5.38
2023-04-20T13:51:00.752Z,5.07
2023-04-20T13:53:28.168Z,8.25
2023-04-20T13:55:55.887Z,11.45
2023-04-20T13:58:23.245Z,11.23
2023-04-20T14:00:50.477Z,7.75
2023-04-20T14:03:20.580Z,10.77
2023-04-20T14:05:49.273Z,7.65
2023-04-20T14:08:17.648Z,6.82
2023-04-20T14:10:44.895Z,7.78
2023-04-20T14:13:17.302Z,7.30
2023-04-20T14:15:45.677Z,13.95
2023-04-20T14:18:13.148Z,11.68
2023-04-20T14:20:40.426Z,8.35
2023-04-20T14:23:09.409Z,8.45
2023-04-20T14:25:36.943Z,10.63
2023-04-20T14:28:04.609Z,9.45
2023-04-20T14:30:31.960Z,10.75
2023-04-20T14:33:00.934Z,10.80
2023-04-20T14:35:28.938Z,9.05
2023-04-20T14:37:56.391Z,7.50
2023-04-20T14:40:23.778Z,10.55
2023-04-20T14:42:50.990Z,11.82
2023-04-20T14:45:19.099Z,9.52
2023-04-20T14:47:46.204Z,14.95
2023-04-20T14:50:13.775Z,7.13
2023-04-20T14:52:41.196Z,9.00
2023-04-20T14:55:08.802Z,5.35
2023-04-20T14:57:35.859Z,6.82
2023-04-20T15:00:06.342Z,6.10
2023-04-20T15:02:33.807Z,9.07
2023-04-20T15:05:02.353Z,11.18
2023-04-20T15:07:30.389Z,4.55
2023-04-20T15:09:58.221Z,6.78
2023-04-20T15:12:25.950Z,5.65
2023-04-20T15:14:53.321Z,5.65
2023-04-20T15:17:20.614Z,7.05
2023-04-20T15:19:48.068Z,6.47
2023-04-20T15:22:15.501Z,11.02
2023-04-20T15:24:43.014Z,10.18
2023-04-20T15:27:10.120Z,7.18
2023-04-20T15:29:37.559Z,7.22
2023-04-20T15:32:05.226Z,6.72
2023-04-20T15:34:32.395Z,6.47
2023-04-20T15:36:59.746Z,6.88
2023-04-20T15:39:26.946Z,4.95
2023-04-20T15:41:54.244Z,10.45
2023-04-20T15:44:21.402Z,6.53
2023-04-20T15:46:48.548Z,8.07
2023-04-20T15:49:16.837Z,14.32
2023-04-20T15:51:44.499Z,14.38
2023-04-20T15:54:11.600Z,8.07
2023-04-20T15:56:38.743Z,6.03
2023-04-20T15:59:05.835Z,7.57
2023-04-20T16:01:34.376Z,6.72
2023-04-20T16:04:01.773Z,8.75
2023-04-20T16:06:29.291Z,9.20
2023-04-20T16:08:57.982Z,7.63
2023-04-20T16:11:25.175Z,11.85
2023-04-20T16:13:52.252Z,12.38
2023-04-20T16:16:19.456Z,10.77
2023-04-20T16:18:46.639Z,13.30
2023-04-20T16:21:14.773Z,7.95
2023-04-20T16:23:41.860Z,12.55
2023-04-20T16:26:08.975Z,9.27
2023-04-20T16:28:36.377Z,9.38
2023-04-20T16:31:03.633Z,8.38
2023-04-20T16:33:32.457Z,7.07
2023-04-20T16:36:00.722Z,7.15
2023-04-20T16:38:27.864Z,13.27
2023-04-20T16:40:55.113Z,9.98
2023-04-20T16:43:22.213Z,21.60
2023-04-20T16:45:49.579Z,10.82
2023-04-20T16:48:16.652Z,11.75
2023-04-20T16:50:43.782Z,11.10
2023-04-20T16:53:11.353Z,11.20
2023-04-20T16:55:39.106Z,14.60
2023-04-20T16:58:06.329Z,12.02
2023-04-20T17:00:34.688Z,13.52
2023-04-20T17:03:07.191Z,12.57
2023-04-20T17:05:40.344Z,12.80
2023-04-20T17:08:09.928Z,14.10
2023-04-20T17:10:38.688Z,17.73
2023-04-20T17:13:05.981Z,20.95
2023-04-20T17:15:33.135Z,14.43
2023-04-20T17:18:00.762Z,13.75
2023-04-20T17:20:28.629Z,13.52
2023-04-20T17:22:55.800Z,11.07
2023-04-20T17:25:25.066Z,11.68
2023-04-20T17:27:52.138Z,13.82
2023-04-20T17:30:21.195Z,9.55
2023-04-20T17:32:48.564Z,8.18
2023-04-20T17:35:16.044Z,10.10
2023-04-20T17:37:43.216Z,11.43
2023-04-20T17:40:10.635Z,7.80
2023-04-20T17:42:38.265Z,8.02
2023-04-20T17:45:06.555Z,13.48
2023-04-20T17:47:33.803Z,9.57
2023-04-20T17:50:01.249Z,16.02
2023-04-20T17:52:28.373Z,13.20
2023-04-20T17:54:55.645Z,15.15
2023-04-20T17:57:22.804Z,20.13
2023-04-20T17:59:50.957Z,17.10
2023-04-20T18:02:18.804Z,16.38
2023-04-20T18:04:46.314Z,27.85
2023-04-20T18:07:15.907Z,24.90
2023-04-20T18:09:44.064Z,24.77
2023-04-20T18:12:11.693Z,18.15
2023-04-20T18:14:39.836Z,17.20
2023-04-20T18:17:08.128Z,21.48
2023-04-20T18:19:35.803Z,17.55
2023-04-20T18:22:04.001Z,11.25
2023-04-20T18:24:31.426Z,9.00
2023-04-20T18:26:58.859Z,13.88
2023-04-20T18:29:26.465Z,11.05
2023-04-20T18:31:56.383Z,12.98
2023-04-20T18:34:25.697Z,21.45
2023-04-20T18:36:52.780Z,30.85
2023-04-20T18:39:20.275Z,28.98
2023-04-20T18:41:47.698Z,33.78
2023-04-20T18:44:15.139Z,24.17
2023-04-20T18:46:42.708Z,13.85
2023-04-20T18:49:14.478Z,14.98
2023-04-20T18:51:41.905Z,9.55
2023-04-20T18:54:09.016Z,14.27
2023-04-20T18:56:39.072Z,16.88
2023-04-20T18:59:06.476Z,14.57
2023-04-20T19:01:35.510Z,13.68
2023-04-20T19:04:02.968Z,19.42
2023-04-20T19:06:31.484Z,29.00
2023-04-20T19:08:58.607Z,12.18
2023-04-20T19:11:26.089Z,29.15
2023-04-20T19:13:53.649Z,16.45
2023-04-20T19:16:21.044Z,12.45
2023-04-20T19:18:49.574Z,21.67
2023-04-20T19:21:18.468Z,17.85
2023-04-20T19:23:46.745Z,24.65
2023-04-20T19:26:14.235Z,16.85
2023-04-20T19:28:41.598Z,20.73
2023-04-20T19:31:11.205Z,24.52
2023-04-20T19:33:38.954Z,16.27
2023-04-20T19:36:07.076Z,18.55
2023-04-20T19:38:35.592Z,15.30
2023-04-20T19:41:03.963Z,14.60
2023-04-20T19:43:35.573Z,14.13
2023-04-20T19:46:03.396Z,18.63
2023-04-20T19:48:30.680Z,15.77
2023-04-20T19:50:59.525Z,13.20
2023-04-20T19:53:30.528Z,17.65
2023-04-20T19:55:58.004Z,23.60
2023-04-20T19:58:25.098Z,22.02
2023-04-20T20:00:52.956Z,23.33
2023-04-20T20:03:20.149Z,21.00
2023-04-20T20:05:47.584Z,19.08
2023-04-20T20:08:15.076Z,22.95
2023-04-20T20:10:42.749Z,20.17
2023-04-20T20:13:10.164Z,19.20
2023-04-20T20:15:38.084Z,24.08
2023-04-20T20:18:05.457Z,30.27
2023-04-20T20:20:33.315Z,28.58
2023-04-20T20:23:00.848Z,39.00
2023-04-20T20:25:28.007Z,29.95
2023-04-20T20:27:55.181Z,27.13
2023-04-20T20:30:22.666Z,27.35
2023-04-20T20:32:50.340Z,25.77
2023-04-20T20:35:17.910Z,25.40
2023-04-20T20:37:45.596Z,25.00
2023-04-20T20:40:15.495Z,24.60
2023-04-20T20:42:43.053Z,30.92
2023-04-20T20:45:13.064Z,28.70
2023-04-20T20:47:42.513Z,30.95
2023-04-20T20:50:15.039Z,32.75
2023-04-20T20:52:42.676Z,29.63
2023-04-20T20:55:10.742Z,27.83
2023-04-20T20:57:38.677Z,28.25
2023-04-20T21:00:10.677Z,25.40
2023-04-20T21:02:38.572Z,32.88
2023-04-20T21:05:07.331Z,34.33
2023-04-20T21:07:34.848Z,35.03
2023-04-20T21:10:02.294Z,29.98
2023-04-20T21:12:31.631Z,27.98
2023-04-20T21:14:58.834Z,25.13
2023-04-20T21:17:26.248Z,26.20
2023-04-20T21:19:53.643Z,24.35
2023-04-20T21:22:22.743Z,31.35
2023-04-20T21:24:49.851Z,36.25
2023-04-20T21:27:18.234Z,24.88
2023-04-20T21:29:45.324Z,27.25
2023-04-20T21:32:12.657Z,30.77
2023-04-20T21:34:40.393Z,30.75
2023-04-20T21:37:09.376Z,33.05
2023-04-20T21:39:36.608Z,39.97
2023-04-20T21:42:04.817Z,25.02
2023-04-20T21:44:32.267Z,26.80
2023-04-20T21:47:02.774Z,33.85
2023-04-20T21:49:29.991Z,32.72
2023-04-20T21:51:57.320Z,34.17
2023-04-20T21:54:24.443Z,42.55
2023-04-20T21:56:51.627Z,49.22
2023-04-20T21:59:18.974Z,49.85
2023-04-20T22:01:46.221Z,37.05
2023-04-20T22:04:14.351Z,36.72
2023-04-20T22:06:41.844Z,42.05
2023-04-20T22:09:08.985Z,45.45
2023-04-20T22:11:37.238Z,50.38
2023-04-20T22:14:04.970Z,53.67
2023-04-20T22:16:34.230Z,56.85
2023-04-20T22:19:01.943Z,46.17
2023-04-20T22:21:29.297Z,44.00
2023-04-20T22:23:57.146Z,37.25
2023-04-20T22:26:24.745Z,29.25
2023-04-20T22:28:51.846Z,27.27
2023-04-20T22:31:20.500Z,31.98
2023-04-20T22:33:47.596Z,27.60
2023-04-20T22:36:15.045Z,24.42
2023-04-20T22:38:42.392Z,27.77
2023-04-20T22:41:10.114Z,30.50
2023-04-20T22:43:37.202Z,31.85
2023-04-20T22:46:04.887Z,30.90
2023-04-20T22:48:31.952Z,34.50
2023-04-20T22:51:01.000Z,26.58
2023-04-20T22:53:30.817Z,33.03
2023-04-20T22:56:08.011Z,29.90
2023-04-20T22:58:35.971Z,26.92
2023-04-20T23:01:03.137Z,28.42
2023-04-20T23:03:31.479Z,33.25
2023-04-20T23:05:59.354Z,26.02
2023-04-20T23:08:26.666Z,25.25
2023-04-20T23:10:56.764Z,24.88
2023-04-20T23:13:26.650Z,24.48
2023-04-20T23:15:54.611Z,28.92
2023-04-20T23:18:21.735Z,21.42
2023-04-20T23:20:49.681Z,35.17
2023-04-20T23:23:17.147Z,22.05
2023-04-20T23:25:44.602Z,22.52
2023-04-20T23:28:11.714Z,25.67
2023-04-20T23:30:39.751Z,24.75
2023-04-20T23:33:06.861Z,20.08
2023-04-20T23:35:34.554Z,19.77
2023-04-20T23:38:03.516Z,18.55
2023-04-20T23:40:31.503Z,25.35
2023-04-20T23:42:58.596Z,18.10
2023-04-20T23:45:27.023Z,17.38
2023-04-20T23:47:54.123Z,19.83
2023-04-20T23:50:22.185Z,16.90
2023-04-20T23:52:49.912Z,15.63
2023-04-20T23:55:17.312Z,15.85
2023-04-20T23:57:44.396Z,18.45
